Flight Track Log - Related Links

Times and Time Zones

All times are in EDT time to prevent confusion due to time zone crossing. See the THY888 flight status page for this flight to view local times or setup timezone preferences in your user account.

Time Position Orientation Groundspeed Altitude Reporting Facility
EDT Latitude Longitude Course Direction KTS MPH feet Rate Location/Type
Wed 02:21:48 PM 41.0860 28.8430 360° North 258 297 4,100  Level FlightAware ADS-B
Wed 02:22:23 PM 41.0820 28.8950 96° East 264 304 5,500 2,867 Climbing FlightAware ADS-B
Wed 02:23:18 PM 41.0330 28.9680 132° Southeast 282 325 8,400 3,040 Climbing FlightAware ADS-B
Wed 02:23:38 PM 41.0170 28.9930 130° Southeast 284 327 9,300 2,308 Climbing FlightAware ADS-B
Wed 02:24:23 PM 40.9760 29.0590 129° Southeast 330 380 10,900 2,267 Climbing FlightAware ADS-B
Wed 02:25:08 PM 40.9300 29.1300 131° Southeast 353 406 12,700 2,533 Climbing FlightAware ADS-B
Wed 02:25:53 PM 40.8820 29.2070 129° Southeast 359 413 14,700 2,682 Climbing FlightAware ADS-B
Wed 02:26:33 PM 40.8360 29.2790 130° Southeast 374 430 16,500 2,541 Climbing FlightAware ADS-B
Wed 02:27:18 PM 40.7870 29.3550 130° Southeast 380 437 18,300 2,329 Climbing FlightAware ADS-B
Wed 02:27:58 PM 40.7490 29.4380 121° Southeast 389 448 19,800 2,250 Climbing FlightAware ADS-B
Wed 02:28:38 PM 40.7200 29.5280 113° Southeast 397 457 21,300 2,188 Climbing FlightAware ADS-B
Wed 02:29:23 PM 40.6870 29.6300 113° Southeast 407 468 22,900 2,047 Climbing FlightAware ADS-B
Wed 02:30:03 PM 40.6580 29.7240 112° Southeast 414 476 24,200 1,800 Climbing FlightAware ADS-B
Wed 02:30:33 PM 40.6350 29.7930 114° Southeast 422 486 25,000 1,629 Climbing FlightAware ADS-B
Wed 02:31:13 PM 40.6040 29.8900 113° Southeast 428 493 26,100 1,624 Climbing FlightAware ADS-B
Wed 02:31:58 PM 40.5690 29.9980 113° Southeast 437 503 27,300 1,482 Climbing FlightAware ADS-B
Wed 02:32:38 PM 40.5380 30.0930 113° Southeast 444 511 28,200 1,091 Climbing FlightAware ADS-B
Wed 02:33:48 PM 40.4820 30.2660 113° Southeast 448 516 29,300 600 Climbing FlightAware ADS-B
Wed 02:34:28 PM 40.4540 30.3510 113° Southeast 448 516 29,300 1,412 Level FlightAware ADS-B
Wed 02:35:13 PM 40.4110 30.4800 114° Southeast 469 540 31,300 1,906 Climbing FlightAware ADS-B
Wed 02:35:53 PM 40.3740 30.5920 113° Southeast 475 547 32,000 1,059 Climbing FlightAware ADS-B
Wed 02:36:38 PM 40.3330 30.7140 114° Southeast 482 555 32,800 706 Climbing FlightAware ADS-B
Wed 02:37:18 PM 40.3090 30.8230 106° East 484 557 33,000 150 Climbing FlightAware ADS-B
Wed 02:37:58 PM 40.2970 30.9350 98° East 483 556 33,000 71 Level FlightAware ADS-B
Wed 02:38:43 PM 40.2720 31.0710 104° East 482 555 33,100 847 Climbing FlightAware ADS-B
Wed 02:39:23 PM 40.2510 31.1760 105° East 473 544 34,200 1,280 Climbing FlightAware ADS-B
Wed 02:39:58 PM 40.2300 31.2780 105° East 475 547 34,700 1,050 Climbing FlightAware ADS-B
Wed 02:40:43 PM 40.2050 31.4010 105° East 467 537 35,600 1,059 Climbing FlightAware ADS-B
Wed 02:41:23 PM 40.1820 31.5110 105° East 464 534 36,200 918 Climbing FlightAware ADS-B
Wed 02:42:08 PM 40.1580 31.6290 105° East 461 531 36,900 565 Climbing FlightAware ADS-B
Wed 02:42:48 PM 40.1350 31.7400 105° East 467 537 37,000 71 Climbing FlightAware ADS-B
Wed 02:43:33 PM 40.1110 31.8570 105° East 471 542 37,000  Level FlightAware ADS-B
Wed 02:44:18 PM 40.0840 31.9840 105° East 471 542 37,000  Level FlightAware ADS-B
Wed 02:44:58 PM 40.0610 32.0940 105° East 473 544 37,000  Level FlightAware ADS-B
Wed 02:45:23 PM 40.0470 32.1620 105° East 468 539 37,000  Level FlightAware ADS-B
Wed 02:46:08 PM 40.0210 32.2850 105° East 467 537 37,000  Level FlightAware ADS-B
Wed 02:46:48 PM 39.9980 32.3930 106° East 467 537 37,000  Level FlightAware ADS-B
Wed 02:47:33 PM 39.9720 32.5150 106° East 467 537 37,000  Level FlightAware ADS-B
Wed 02:48:03 PM 39.9540 32.5960 106° East 468 539 37,000  Level FlightAware ADS-B
Wed 02:48:43 PM 39.9310 32.7040 105° East 468 539 37,000  Level FlightAware ADS-B
Wed 02:49:23 PM 39.9070 32.8140 106° East 468 539 37,000  Level FlightAware ADS-B
Wed 02:49:48 PM 39.8920 32.8820 106° East 468 539 37,000  Level FlightAware ADS-B
Wed 02:50:33 PM 39.8650 33.0040 106° East 465 535 37,000  Level FlightAware ADS-B
Wed 02:53:00 PM 39.8572 33.4036 91° East  Level Estimated
Wed 02:54:00 PM 39.8536 33.5666 92° East  Level Estimated
Wed 02:55:00 PM 39.8498 33.7297 92° East  Level Estimated
Wed 02:55:28 PM 39.6920 33.7790 92° East 456 525 37,000  Level FlightAware ADS-B
Wed 02:56:13 PM 39.6650 33.8970 107° East 455 524 37,000  Level FlightAware ADS-B
Wed 02:56:43 PM 39.6470 33.9740 107° East 454 522 37,000  Level FlightAware ADS-B
Wed 02:57:23 PM 39.6230 34.0770 107° East 453 521 37,000  Level FlightAware ADS-B
Wed 02:58:08 PM 39.5960 34.1960 106° East 452 520 37,000  Level FlightAware ADS-B
Wed 02:58:48 PM 39.5720 34.2990 107° East 457 526 37,000  Level FlightAware ADS-B
Wed 02:59:28 PM 39.5480 34.4050 106° East 464 534 37,000  Level FlightAware ADS-B
Wed 03:00:13 PM 39.5200 34.5250 107° East 465 535 37,000  Level FlightAware ADS-B
Wed 03:00:53 PM 39.4950 34.6300 107° East 465 535 37,000  Level FlightAware ADS-B
Wed 03:01:38 PM 39.4660 34.7490 107° East 464 534 37,000  Level FlightAware ADS-B
Wed 03:02:18 PM 39.4400 34.8570 107° East 465 535 37,000  Level FlightAware ADS-B
Wed 03:02:58 PM 39.4150 34.9620 107° East 465 535 37,000  Level FlightAware ADS-B
Wed 03:03:43 PM 39.3900 35.0710 106° East 465 535 37,000  Level FlightAware ADS-B
Wed 03:04:23 PM 39.3680 35.1610 108° East 465 535 37,000  Level FlightAware ADS-B
Wed 03:05:03 PM 39.3470 35.2520 107° East 465 535 37,000  Level FlightAware ADS-B
Wed 03:05:43 PM 39.3260 35.3420 107° East 465 535 37,000  Level FlightAware ADS-B
Wed 03:06:23 PM 39.3040 35.4330 107° East 465 535 37,000  Level FlightAware ADS-B
Wed 03:07:13 PM 39.2770 35.5460 107° East 465 535 37,000  Level FlightAware ADS-B
Wed 03:07:53 PM 39.2560 35.6360 107° East 465 535 37,000  Level FlightAware ADS-B
Wed 03:08:33 PM 39.2350 35.7260 107° East 465 535 37,000  Level FlightAware ADS-B
Wed 03:09:13 PM 39.2130 35.8170 107° East 465 535 37,000  Level FlightAware ADS-B
Wed 03:09:53 PM 39.1920 35.9070 107° East 465 535 37,000  Level FlightAware ADS-B
Wed 03:10:33 PM 39.1700 35.9970 107° East 465 535 37,000  Level FlightAware ADS-B
Wed 03:11:23 PM 39.1440 36.1100 106° East 465 535 37,000  Level FlightAware ADS-B
Wed 03:12:03 PM 39.1220 36.2000 107° East 465 535 37,000  Level FlightAware ADS-B
Wed 03:12:43 PM 39.1010 36.2900 107° East 465 535 37,000  Level FlightAware ADS-B
Wed 03:15:00 PM 39.0930 36.6583 91° East  Level Estimated
Wed 03:16:00 PM 39.0891 36.8196 92° East  Level Estimated
Wed 03:17:00 PM 39.0850 36.9808 92° East  Level Estimated
Wed 03:18:00 PM 39.0807 37.1420 92° East  Level Estimated
Wed 03:19:00 PM 39.0761 37.3032 92° East  Level Estimated
Wed 03:20:00 PM 39.0714 37.4644 92° East  Level Estimated
Wed 03:21:00 PM 39.0664 37.6256 92° East  Level Estimated
Wed 03:22:00 PM 39.0611 37.7867 92° East  Level Estimated
Wed 03:23:00 PM 39.0557 37.9479 92° East  Level Estimated
Wed 03:24:00 PM 39.0501 38.1090 93° East  Level Estimated
Wed 03:25:00 PM 39.0442 38.2700 93° East  Level Estimated
Wed 03:26:00 PM 39.0381 38.4311 93° East  Level Estimated
Wed 03:27:00 PM 39.0318 38.5921 93° East  Level Estimated
Wed 03:28:00 PM 39.0252 38.7531 93° East  Level Estimated
Wed 03:29:00 PM 39.0185 38.9140 93° East  Level Estimated
Wed 03:30:00 PM 39.0115 39.0749 93° East  Level Estimated
Wed 03:31:00 PM 39.0043 39.2358 93° East  Level Estimated
Wed 03:32:00 PM 38.9968 39.3967 93° East  Level Estimated
Wed 03:33:00 PM 38.9892 39.5575 93° East  Level Estimated
Wed 03:34:00 PM 38.9813 39.7183 94° East  Level Estimated
Wed 03:35:00 PM 38.9732 39.8790 94° East  Level Estimated
Wed 03:36:00 PM 38.9649 40.0397 94° East  Level Estimated
Wed 03:37:00 PM 38.9564 40.2004 94° East  Level Estimated
Wed 03:38:00 PM 38.9477 40.3610 94° East  Level Estimated
Wed 03:39:00 PM 38.9387 40.5216 94° East  Level Estimated
Wed 03:40:00 PM 38.9295 40.6822 94° East  Level Estimated
Wed 03:41:00 PM 38.9201 40.8427 94° East  Level Estimated
Wed 03:42:00 PM 38.9104 41.0031 94° East  Level Estimated
Wed 03:43:00 PM 38.9006 41.1636 94° East  Level Estimated
Wed 03:43:08 PM 38.4000 41.3570 94° East 455 524 37,000  Level FlightAware ADS-B
Wed 03:43:43 PM 38.3770 41.4410 109° East 455 524 37,000  Level FlightAware ADS-B
Wed 03:44:23 PM 38.3540 41.5280 109° East 455 524 37,000  Level FlightAware ADS-B
Wed 03:45:13 PM 38.3250 41.6350 109° East 455 524 37,000  Level FlightAware ADS-B
Wed 03:45:53 PM 38.3020 41.7220 109° East 455 524 37,000  Level FlightAware ADS-B
Wed 03:46:38 PM 38.2780 41.9030 100° East 455 524 37,000  Level FlightAware ADS-B
Wed 03:47:33 PM 38.2490 42.0480 104° East 458 527 37,000  Level FlightAware ADS-B
Wed 03:48:13 PM 38.2290 42.1520 104° East 458 527 37,000  Level FlightAware ADS-B
Wed 03:48:58 PM 38.2060 42.2650 104° East 458 527 37,000  Level FlightAware ADS-B
Wed 03:49:38 PM 38.1850 42.3710 104° East 457 526 37,000  Level FlightAware ADS-B
Wed 03:50:18 PM 38.1650 42.4720 104° East 458 527 37,000  Level FlightAware ADS-B
Wed 03:51:03 PM 38.1410 42.5880 105° East 460 529 37,000  Level FlightAware ADS-B
Wed 03:51:48 PM 38.1160 42.7120 104° East 463 533 37,000  Level FlightAware ADS-B
Wed 03:52:18 PM 38.1000 42.7890 105° East 464 534 37,000  Level FlightAware ADS-B
Wed 03:52:53 PM 38.0810 42.8830 104° East 465 535 37,000  Level FlightAware ADS-B
Wed 03:53:38 PM 38.0570 43.0010 104° East 465 535 37,000  Level FlightAware ADS-B
Wed 03:54:18 PM 38.0350 43.1060 105° East 465 535 37,000  Level FlightAware ADS-B
Wed 03:55:03 PM 38.0100 43.2270 105° East 466 536 37,000  Level FlightAware ADS-B
Wed 03:55:43 PM 37.9880 43.3320 105° East 467 537 37,000  Level FlightAware ADS-B
Wed 03:56:23 PM 37.9650 43.4380 105° East 467 537 37,000  Level FlightAware ADS-B
Wed 03:57:08 PM 37.9410 43.5530 105° East 466 536 37,000  Level FlightAware ADS-B
Wed 03:57:48 PM 37.9190 43.6600 105° East 466 536 37,000  Level FlightAware ADS-B
Wed 03:58:33 PM 37.8930 43.7790 105° East 462 532 37,000  Level FlightAware ADS-B
Wed 03:59:13 PM 37.8700 43.8840 105° East 458 527 37,000  Level FlightAware ADS-B
Wed 03:59:53 PM 37.8480 43.9870 105° East 457 526 37,000  Level FlightAware ADS-B
Wed 04:00:38 PM 37.8240 44.1000 105° East 456 525 37,000  Level FlightAware ADS-B
Wed 04:01:18 PM 37.8020 44.2030 105° East 452 520 37,000  Level FlightAware ADS-B
Wed 04:02:03 PM 37.7760 44.3190 106° East 450 518 37,000  Level FlightAware ADS-B
Wed 04:02:43 PM 37.7540 44.4190 106° East 452 520 37,000  Level FlightAware ADS-B
Wed 04:03:23 PM 37.7310 44.5220 106° East 456 525 37,000  Level FlightAware ADS-B
Wed 04:04:08 PM 37.7090 44.6380 103° East 465 535 37,000  Level FlightAware ADS-B
Wed 04:04:48 PM 37.7030 44.7460 94° East 470 541 37,000  Level FlightAware ADS-B
Wed 04:05:33 PM 37.6970 44.8720 93° East 467 537 37,000  Level FlightAware ADS-B
Wed 04:06:13 PM 37.6920 44.9810 93° East 467 537 37,000  Level FlightAware ADS-B
Wed 04:06:53 PM 37.6830 45.0890 96° East 465 535 37,000  Level FlightAware ADS-B
Wed 04:07:38 PM 37.6560 45.2010 107° East 460 529 37,000  Level FlightAware ADS-B
Wed 04:08:18 PM 37.6300 45.3030 108° East 460 529 37,000  Level FlightAware ADS-B
Wed 04:08:58 PM 37.6020 45.4050 109° East 461 531 37,000  Level FlightAware ADS-B
Wed 04:09:43 PM 37.5720 45.5200 108° East 462 532 37,000  Level FlightAware ADS-B
Wed 04:10:23 PM 37.5440 45.6260 108° East 467 537 37,000  Level FlightAware ADS-B
Wed 04:11:08 PM 37.5130 45.7410 109° East 468 539 37,000  Level FlightAware ADS-B
Wed 04:11:48 PM 37.4860 45.8410 109° East 468 539 37,000  Level FlightAware ADS-B
Wed 04:12:28 PM 37.4590 45.9460 108° East 470 541 37,000  Level FlightAware ADS-B
Wed 04:13:13 PM 37.4270 46.0620 109° East 471 542 37,000  Level FlightAware ADS-B
Wed 04:13:53 PM 37.4010 46.1590 109° East 472 543 37,000  Level FlightAware ADS-B
Wed 04:14:33 PM 37.3690 46.2730 109° East 476 548 37,000  Level FlightAware ADS-B
Wed 04:15:18 PM 37.3390 46.3860 108° East 477 549 37,000  Level FlightAware ADS-B
Wed 04:15:53 PM 37.3170 46.4690 108° East 477 549 37,000  Level FlightAware ADS-B
Wed 04:16:43 PM 37.2880 46.5810 108° East 477 549 37,000  Level FlightAware ADS-B
Wed 04:17:23 PM 37.2650 46.6710 108° East 477 549 37,000  Level FlightAware ADS-B
Wed 04:18:03 PM 37.2420 46.7610 108° East 477 549 37,000  Level FlightAware ADS-B
Wed 04:18:43 PM 37.2190 46.8500 108° East 477 549 37,000  Level FlightAware ADS-B
Wed 04:19:23 PM 37.1950 46.9400 108° East 477 549 37,000  Level FlightAware ADS-B
Wed 04:20:13 PM 37.1660 47.0520 108° East 477 549 37,000  Level FlightAware ADS-B
Wed 04:20:53 PM 37.1430 47.1410 108° East 477 549 37,000  Level FlightAware ADS-B
Wed 04:21:33 PM 37.1200 47.2310 108° East 477 549 37,000  Level FlightAware ADS-B
Wed 04:22:13 PM 37.0970 47.3200 108° East 477 549 37,000  Level FlightAware ADS-B
Wed 04:22:53 PM 37.0740 47.4100 108° East 477 549 37,000  Level FlightAware ADS-B
Wed 04:23:43 PM 37.0450 47.5220 108° East 477 549 37,000  Level FlightAware ADS-B
Wed 04:24:23 PM 37.0210 47.6110 109° East 477 549 37,000  Level FlightAware ADS-B
Wed 04:25:03 PM 36.9980 47.7000 108° East 477 549 37,000  Level FlightAware ADS-B
Wed 04:27:00 PM 36.9935 48.0057 91° East  Level Estimated
Wed 04:28:00 PM 36.9909 48.1624 91° East  Level Estimated
Wed 04:29:00 PM 36.9881 48.3192 91° East  Level Estimated
Wed 04:30:00 PM 36.9850 48.4759 91° East  Level Estimated
Wed 04:31:00 PM 36.9818 48.6326 91° East  Level Estimated
Wed 04:32:00 PM 36.9784 48.7893 92° East  Level Estimated
Wed 04:33:00 PM 36.9747 48.9460 92° East  Level Estimated
Wed 04:34:00 PM 36.9709 49.1027 92° East  Level Estimated
Wed 04:35:00 PM 36.9668 49.2593 92° East  Level Estimated
Wed 04:36:00 PM 36.9626 49.4160 92° East  Level Estimated
Wed 04:37:00 PM 36.9581 49.5726 92° East  Level Estimated
Wed 04:38:00 PM 36.9534 49.7292 92° East  Level Estimated
Wed 04:39:00 PM 36.9486 49.8858 92° East  Level Estimated
Wed 04:40:00 PM 36.9435 50.0423 92° East  Level Estimated
Wed 04:41:00 PM 36.9382 50.1989 92° East  Level Estimated
Wed 04:42:00 PM 36.9327 50.3554 92° East  Level Estimated
Wed 04:43:00 PM 36.9270 50.5119 93° East  Level Estimated
Wed 04:44:00 PM 36.9211 50.6683 93° East  Level Estimated
Wed 04:45:00 PM 36.9150 50.8248 93° East  Level Estimated
Wed 04:46:00 PM 36.9087 50.9812 93° East  Level Estimated
Wed 04:47:00 PM 36.9021 51.1376 93° East  Level Estimated
Wed 04:48:00 PM 36.8954 51.2940 93° East  Level Estimated
Wed 04:49:00 PM 36.8885 51.4503 93° East  Level Estimated
Wed 04:50:00 PM 36.8814 51.6066 93° East  Level Estimated
Wed 04:51:00 PM 36.8740 51.7629 93° East  Level Estimated
Wed 04:52:00 PM 36.8665 51.9191 93° East  Level Estimated
Wed 04:53:00 PM 36.8587 52.0754 94° East  Level Estimated
Wed 04:54:00 PM 36.8508 52.2315 94° East  Level Estimated
Wed 04:55:00 PM 36.8426 52.3877 94° East  Level Estimated
Wed 04:56:00 PM 36.8343 52.5438 94° East  Level Estimated
Wed 04:57:00 PM 36.8257 52.6999 94° East  Level Estimated
Wed 04:58:00 PM 36.8169 52.8559 94° East  Level Estimated
Wed 04:59:00 PM 36.8080 53.0120 94° East  Level Estimated
Wed 05:00:00 PM 36.7988 53.1679 94° East  Level Estimated
Wed 05:01:00 PM 36.7894 53.3239 94° East  Level Estimated
Wed 05:02:00 PM 36.7798 53.4798 94° East  Level Estimated
Wed 05:03:00 PM 36.7700 53.6356 94° East  Level Estimated
Wed 05:04:00 PM 36.7600 53.7915 95° East  Level Estimated
Wed 05:05:00 PM 36.7499 53.9472 95° East  Level Estimated
Wed 05:06:00 PM 36.7394 54.1030 95° East  Level Estimated
Wed 05:07:00 PM 36.7289 54.2587 95° East  Level Estimated
Wed 05:08:00 PM 36.7180 54.4143 95° East  Level Estimated
Wed 05:09:00 PM 36.7071 54.5699 95° East  Level Estimated
Wed 05:10:00 PM 36.6958 54.7255 95° East  Level Estimated
Wed 05:11:00 PM 36.6844 54.8810 95° East  Level Estimated
Wed 05:12:00 PM 36.6728 55.0365 95° East  Level Estimated
Wed 05:13:00 PM 36.6610 55.1919 95° East  Level Estimated
Wed 05:14:00 PM 36.6490 55.3473 95° East  Level Estimated
Wed 05:15:00 PM 36.6368 55.5026 96° East  Level Estimated
Wed 05:16:00 PM 36.6244 55.6579 96° East  Level Estimated
Wed 05:17:00 PM 36.6117 55.8131 96° East  Level Estimated
Wed 05:18:00 PM 36.5989 55.9683 96° East  Level Estimated
Wed 05:19:00 PM 36.5859 56.1234 96° East  Level Estimated
Wed 05:20:00 PM 36.5727 56.2785 96° East  Level Estimated
Wed 05:21:00 PM 36.5592 56.4335 96° East  Level Estimated
Wed 05:22:00 PM 36.5456 56.5884 96° East  Level Estimated
Wed 05:23:00 PM 36.5318 56.7434 96° East  Level Estimated
Wed 05:24:00 PM 36.5178 56.8982 96° East  Level Estimated
Wed 05:25:00 PM 36.5035 57.0530 96° East  Level Estimated
Wed 05:26:00 PM 36.4891 57.2077 97° East  Level Estimated
Wed 05:27:00 PM 36.4745 57.3624 97° East  Level Estimated
Wed 05:28:00 PM 36.4597 57.5170 97° East  Level Estimated
Wed 05:29:00 PM 36.4446 57.6716 97° East  Level Estimated
Wed 05:30:00 PM 36.4294 57.8261 97° East  Level Estimated
Wed 05:31:00 PM 36.4140 57.9805 97° East  Level Estimated
Wed 05:32:00 PM 36.3984 58.1349 97° East  Level Estimated
Wed 05:33:00 PM 36.3826 58.2892 97° East  Level Estimated
Wed 05:34:00 PM 36.3665 58.4435 97° East  Level Estimated
Wed 05:35:00 PM 36.3503 58.5977 97° East  Level Estimated
Wed 05:36:00 PM 36.3339 58.7518 97° East  Level Estimated
Wed 05:37:00 PM 36.3173 58.9058 98° East  Level Estimated
Wed 05:38:00 PM 36.3005 59.0598 98° East  Level Estimated
Wed 05:39:00 PM 36.2835 59.2138 98° East  Level Estimated
Wed 05:40:00 PM 36.2663 59.3676 98° East  Level Estimated
Wed 05:41:00 PM 36.2489 59.5214 98° East  Level Estimated
Wed 05:42:00 PM 36.2352 59.6410 98° East  Level Estimated
Wed 05:43:00 PM 36.2352 59.6410 18° North  Level Estimated
Wed 05:44:00 PM 36.2352 59.6410 18° North  Level Estimated
Wed 05:45:00 PM 36.2352 59.6410 18° North  Level Estimated
Wed 05:46:00 PM 36.2352 59.6410 18° North  Level Estimated
Wed 05:47:00 PM 36.2352 59.6410 18° North  Level Estimated
Wed 05:48:00 PM 36.2352 59.6410 18° North  Level Estimated
Wed 05:49:00 PM 36.2352 59.6410 18° North  Level Estimated
Wed 05:50:00 PM 36.2352 59.6410 18° North  Level Estimated
Wed 05:51:00 PM 36.2352 59.6410 18° North  Level Estimated

Login

Don't have an account? Register now (free) for customized features, flight alerts, and more!